createdAt,value
2023-02-24T00:00:32.612Z,100268.47
2023-02-24T00:03:06.475Z,100263.34
2023-02-24T00:05:36.904Z,100257.31
2023-02-24T00:08:05.053Z,100261.69
2023-02-24T00:10:37.543Z,100251.38
2023-02-24T00:13:05.799Z,100247.97
2023-02-24T00:15:33.889Z,100247.06
2023-02-24T00:18:07.155Z,100241.84
2023-02-24T00:20:35.794Z,100236.63
2023-02-24T00:23:04.081Z,100243.31
2023-02-24T00:25:32.233Z,100233.66
2023-02-24T00:28:02.456Z,100232.78
2023-02-24T00:30:33.109Z,100225.09
2023-02-24T00:33:03.771Z,100220.84
2023-02-24T00:35:32.262Z,100218.28
2023-02-24T00:38:00.911Z,100205.41
2023-02-24T00:40:30.845Z,100205.44
2023-02-24T00:43:02.199Z,100205.50
2023-02-24T00:45:33.923Z,100191.75
2023-02-24T00:48:04.698Z,100189.25
2023-02-24T00:50:33.163Z,100193.59
2023-02-24T00:53:01.470Z,100182.44
2023-02-24T00:55:36.238Z,100185.03
2023-02-24T00:58:07.474Z,100177.31
2023-02-24T01:00:37.453Z,100176.47
2023-02-24T01:03:07.051Z,100168.75
2023-02-24T01:05:37.776Z,100168.81
2023-02-24T01:08:06.003Z,100162.81
2023-02-24T01:10:35.190Z,100162.00
2023-02-24T01:13:02.971Z,100158.59
2023-02-24T01:15:32.576Z,100148.31
2023-02-24T01:18:00.590Z,100151.75
2023-02-24T01:20:30.551Z,100153.53
2023-02-24T01:22:58.802Z,100143.19
2023-02-24T01:25:31.408Z,100149.25
2023-02-24T01:27:59.637Z,100142.38
2023-02-24T01:30:28.723Z,100126.00
2023-02-24T01:33:00.443Z,100129.47
2023-02-24T01:35:31.694Z,100129.50
2023-02-24T01:38:01.843Z,100121.78
2023-02-24T01:40:30.124Z,100125.25
2023-02-24T01:42:58.368Z,100125.28
2023-02-24T01:45:29.660Z,100118.38
2023-02-24T01:48:05.401Z,100112.34
2023-02-24T01:50:36.727Z,100114.94
2023-02-24T01:53:08.515Z,100116.66
2023-02-24T01:55:42.869Z,100116.69
2023-02-24T01:58:22.318Z,100109.78
2023-02-24T02:00:51.689Z,100102.84
2023-02-24T02:03:27.950Z,100094.22
2023-02-24T02:06:01.649Z,100082.13
2023-02-24T02:08:30.438Z,100085.56
2023-02-24T02:11:03.402Z,100076.06
2023-02-24T02:13:36.851Z,100064.81
2023-02-24T02:16:19.656Z,100064.81
2023-02-24T02:18:59.094Z,100061.38
2023-02-24T02:21:51.517Z,100048.41
2023-02-24T02:24:27.748Z,100050.16
2023-02-24T02:27:19.919Z,100050.13
2023-02-24T02:30:19.660Z,100032.84
2023-02-24T02:33:14.209Z,100032.00
2023-02-24T02:35:49.736Z,100029.41
2023-02-24T02:38:27.398Z,100018.13
2023-02-24T02:41:07.194Z,100017.28
2023-02-24T02:43:42.898Z,100012.97
2023-02-24T02:46:17.645Z,100012.13
2023-02-24T02:48:53.255Z,100004.34
2023-02-24T02:51:28.809Z,100005.19
2023-02-24T02:54:02.568Z,100007.78
2023-02-24T02:56:36.774Z,99999.16
2023-02-24T02:59:08.129Z,100001.75
2023-02-24T03:01:43.841Z,99993.97
2023-02-24T03:04:17.157Z,99993.94
2023-02-24T03:06:53.101Z,99987.91
2023-02-24T03:09:27.539Z,99980.97
2023-02-24T03:11:59.742Z,99983.59
2023-02-24T03:14:35.065Z,99969.72
2023-02-24T03:17:06.278Z,99966.25
2023-02-24T03:19:40.092Z,99955.75
2023-02-24T03:22:14.055Z,99948.63
2023-02-24T03:24:44.332Z,99951.84
2023-02-24T03:27:25.905Z,99944.66
2023-02-24T03:29:58.820Z,99947.06
2023-02-24T03:32:33.608Z,99949.53
2023-02-24T03:35:06.417Z,99948.53
2023-02-24T03:37:37.849Z,99943.25
2023-02-24T03:40:14.975Z,99939.78
2023-02-24T03:42:47.232Z,99935.41
2023-02-24T03:45:17.334Z,99933.66
2023-02-24T03:47:46.848Z,99926.75
2023-02-24T03:50:18.351Z,99916.34
2023-02-24T03:53:01.437Z,99913.75
2023-02-24T03:55:40.824Z,99903.31
2023-02-24T03:58:18.325Z,99889.44
2023-02-24T04:00:55.660Z,99886.81
2023-02-24T04:03:34.860Z,99885.06
2023-02-24T04:06:23.513Z,99885.88
2023-02-24T04:09:02.964Z,99892.75
2023-02-24T04:11:43.553Z,99893.56
2023-02-24T04:14:15.513Z,99885.72
2023-02-24T04:16:51.089Z,99878.81
2023-02-24T04:19:22.390Z,99868.34
2023-02-24T04:21:52.833Z,99862.28
2023-02-24T04:24:31.998Z,99858.84
2023-02-24T04:27:04.375Z,99855.41
2023-02-24T04:29:40.446Z,99851.97
2023-02-24T04:32:12.633Z,99846.78
2023-02-24T04:34:41.308Z,99845.91
2023-02-24T04:37:10.179Z,99841.56
2023-02-24T04:39:39.695Z,99832.06
2023-02-24T04:42:16.737Z,99836.38
2023-02-24T04:44:46.623Z,99837.25
2023-02-24T04:47:14.769Z,99838.97
2023-02-24T04:49:44.488Z,99834.66
2023-02-24T04:52:15.325Z,99826.81
2023-02-24T04:54:45.009Z,99828.56
2023-02-24T04:57:13.132Z,99823.34
2023-02-24T04:59:41.408Z,99825.97
2023-02-24T05:02:09.500Z,99819.03
2023-02-24T05:04:38.999Z,99822.56
2023-02-24T05:07:07.187Z,99807.81
2023-02-24T05:09:35.589Z,99805.19
2023-02-24T05:12:05.252Z,99808.63
2023-02-24T05:14:33.356Z,99810.38
2023-02-24T05:17:02.204Z,99809.56
2023-02-24T05:19:47.867Z,99807.81
2023-02-24T05:22:17.679Z,99805.22
2023-02-24T05:24:48.038Z,99795.72
2023-02-24T05:27:18.441Z,99787.94
2023-02-24T05:29:46.580Z,99788.81
2023-02-24T05:32:16.832Z,99788.75
2023-02-24T05:34:45.166Z,99783.44
2023-02-24T05:37:16.518Z,99779.88
2023-02-24T05:39:44.811Z,99765.88
2023-02-24T05:42:13.187Z,99767.53
2023-02-24T05:44:42.592Z,99766.66
2023-02-24T05:47:10.926Z,99766.66
2023-02-24T05:49:39.170Z,99761.41
2023-02-24T05:52:10.061Z,99763.97
2023-02-24T05:54:40.128Z,99758.72
2023-02-24T05:57:12.114Z,99750.91
2023-02-24T05:59:42.963Z,99747.44
2023-02-24T06:02:13.839Z,99745.81
2023-02-24T06:04:51.148Z,99743.31
2023-02-24T06:07:22.937Z,99741.66
2023-02-24T06:09:54.014Z,99741.69
2023-02-24T06:12:23.795Z,99742.56
2023-02-24T06:14:53.509Z,99728.56
2023-02-24T06:17:23.094Z,99728.47
2023-02-24T06:19:53.029Z,99718.81
2023-02-24T06:22:23.149Z,99711.75
2023-02-24T06:24:51.816Z,99714.25
2023-02-24T06:27:21.834Z,99710.59
2023-02-24T06:29:51.558Z,99710.47
2023-02-24T06:32:23.966Z,99710.38
2023-02-24T06:34:53.977Z,99710.28
2023-02-24T06:37:22.924Z,99712.84
2023-02-24T06:39:51.809Z,99713.66
2023-02-24T06:42:20.046Z,99714.50
2023-02-24T06:44:48.961Z,99707.56
2023-02-24T06:47:18.089Z,99715.38
2023-02-24T06:49:47.993Z,99708.38
2023-02-24T06:52:19.188Z,99708.34
2023-02-24T06:54:52.418Z,99705.66
2023-02-24T06:57:20.827Z,99702.16
2023-02-24T06:59:49.048Z,99704.78
2023-02-24T07:02:18.633Z,99697.91
2023-02-24T07:04:48.496Z,99696.25
2023-02-24T07:07:17.562Z,99687.59
2023-02-24T07:09:45.852Z,99690.22
2023-02-24T07:12:15.695Z,99685.88
2023-02-24T07:14:44.098Z,99692.81
2023-02-24T07:17:14.732Z,99697.09
2023-02-24T07:19:44.157Z,99684.91
2023-02-24T07:22:15.278Z,99690.84
2023-02-24T07:24:46.409Z,99686.38
2023-02-24T07:27:22.970Z,99688.06
2023-02-24T07:29:53.535Z,99684.47
2023-02-24T07:32:23.651Z,99681.00
2023-02-24T07:34:52.461Z,99679.19
2023-02-24T07:37:23.645Z,99673.91
2023-02-24T07:39:51.867Z,99683.34
2023-02-24T07:42:19.976Z,99670.13
2023-02-24T07:44:55.152Z,99676.91
2023-02-24T07:47:23.279Z,99674.16
2023-02-24T07:49:51.683Z,99673.19
2023-02-24T07:52:21.314Z,99676.56
2023-02-24T07:54:49.730Z,99678.16
2023-02-24T07:57:19.060Z,99681.53
2023-02-24T07:59:48.299Z,99671.94
2023-02-24T08:02:18.554Z,99665.78
2023-02-24T08:04:50.593Z,99681.34
2023-02-24T08:07:24.738Z,99683.84
2023-02-24T08:10:12.448Z,99683.81
2023-02-24T08:12:43.509Z,99682.88
2023-02-24T08:15:23.871Z,99690.59
2023-02-24T08:17:55.468Z,99691.28
2023-02-24T08:20:27.387Z,99686.72
2023-02-24T08:22:56.156Z,99680.59
2023-02-24T08:25:35.975Z,99684.16
2023-02-24T08:28:09.445Z,99693.75
2023-02-24T08:30:40.637Z,99685.91
2023-02-24T08:33:11.180Z,99681.50
2023-02-24T08:35:45.094Z,99684.06
2023-02-24T08:38:16.462Z,99678.75
2023-02-24T08:40:55.924Z,99672.59
2023-02-24T08:43:33.161Z,99676.81
2023-02-24T08:46:12.629Z,99674.13
2023-02-24T08:48:43.335Z,99660.25
2023-02-24T08:51:15.207Z,99663.75
2023-02-24T08:53:44.540Z,99658.53
2023-02-24T08:56:24.303Z,99661.94
2023-02-24T08:58:57.619Z,99660.03
2023-02-24T09:01:34.792Z,99658.13
2023-02-24T09:04:06.498Z,99653.56
2023-02-24T09:06:39.052Z,99649.78
2023-02-24T09:09:24.630Z,99646.81
2023-02-24T09:11:57.165Z,99657.09
2023-02-24T09:14:29.385Z,99648.28
2023-02-24T09:17:07.171Z,99647.34
2023-02-24T09:20:01.811Z,99642.97
2023-02-24T09:22:31.801Z,99635.97
2023-02-24T09:25:20.585Z,99641.19
2023-02-24T09:27:55.928Z,99639.50
2023-02-24T09:30:45.336Z,99635.84
2023-02-24T09:33:18.834Z,99637.34
2023-02-24T09:35:49.026Z,99634.41
2023-02-24T09:38:19.109Z,99635.19
2023-02-24T09:40:50.008Z,99629.94
2023-02-24T09:43:24.648Z,99631.72
2023-02-24T09:46:00.652Z,99642.00
2023-02-24T09:48:44.084Z,99638.44
2023-02-24T09:51:22.914Z,99631.38
2023-02-24T09:53:54.596Z,99628.59
2023-02-24T09:56:37.108Z,99631.63
2023-02-24T09:59:20.880Z,99631.38
2023-02-24T10:02:02.281Z,99640.66
2023-02-24T10:04:54.041Z,99628.78
2023-02-24T10:07:28.288Z,99634.16
2023-02-24T10:10:19.699Z,99628.34
2023-02-24T10:12:52.617Z,99620.63
2023-02-24T10:15:43.221Z,99618.38
2023-02-24T10:18:28.211Z,99618.94
2023-02-24T10:21:03.990Z,99615.97
2023-02-24T10:23:45.226Z,99615.97
2023-02-24T10:26:31.791Z,99618.25
2023-02-24T10:29:09.144Z,99613.00
2023-02-24T10:31:48.246Z,99614.72
2023-02-24T10:34:25.327Z,99613.00
2023-02-24T10:36:57.596Z,99610.38
2023-02-24T10:39:26.997Z,99613.00
2023-02-24T10:41:58.424Z,99614.97
2023-02-24T10:44:36.164Z,99616.66
2023-02-24T10:47:14.626Z,99613.13
2023-02-24T10:49:56.795Z,99613.78
2023-02-24T10:52:37.191Z,99609.59
2023-02-24T10:55:28.823Z,99608.09
2023-02-24T10:58:08.150Z,99612.22
2023-02-24T11:01:00.153Z,99612.03
2023-02-24T11:03:48.142Z,99612.91
2023-02-24T11:06:42.318Z,99608.59
2023-02-24T11:09:32.236Z,99615.84
2023-02-24T11:12:22.644Z,99607.97
2023-02-24T11:15:11.610Z,99607.75
2023-02-24T11:17:49.150Z,99610.09
2023-02-24T11:20:29.459Z,99596.72
2023-02-24T11:23:09.339Z,99599.09
2023-02-24T11:25:40.540Z,99601.66
2023-02-24T11:28:22.622Z,99597.41
2023-02-24T11:30:57.348Z,99600.16
2023-02-24T11:33:36.524Z,99591.59
2023-02-24T11:36:13.327Z,99593.31
2023-02-24T11:38:46.449Z,99594.06
2023-02-24T11:41:23.051Z,99593.88
2023-02-24T11:44:06.250Z,99587.63
2023-02-24T11:46:41.745Z,99583.84
2023-02-24T11:49:23.999Z,99581.09
2023-02-24T11:51:55.571Z,99589.09
2023-02-24T11:54:26.281Z,99580.44
2023-02-24T11:56:58.203Z,99576.13
2023-02-24T11:59:34.333Z,99576.84
2023-02-24T12:02:08.769Z,99574.84
2023-02-24T12:04:43.732Z,99570.84
2023-02-24T12:07:20.632Z,99568.28
2023-02-24T12:09:54.960Z,99558.25
2023-02-24T12:12:32.722Z,99564.06
2023-02-24T12:15:03.923Z,99565.69
2023-02-24T12:17:37.036Z,99560.13
2023-02-24T12:20:14.301Z,99549.50
2023-02-24T12:22:48.083Z,99547.44
2023-02-24T12:25:16.828Z,99534.03
2023-02-24T12:27:58.651Z,99535.13
2023-02-24T12:30:49.005Z,99530.16
2023-02-24T12:33:31.002Z,99538.53
2023-02-24T12:36:06.768Z,99537.06
2023-02-24T12:38:50.699Z,99536.47
2023-02-24T12:41:32.270Z,99537.06
2023-02-24T12:44:09.246Z,99534.91
2023-02-24T12:46:40.115Z,99533.31
2023-02-24T12:49:26.467Z,99528.31
2023-02-24T12:52:07.944Z,99527.94
2023-02-24T12:54:41.703Z,99537.38
2023-02-24T12:57:12.679Z,99521.34
2023-02-24T12:59:42.743Z,99518.22
2023-02-24T13:02:20.619Z,99508.31
2023-02-24T13:04:57.966Z,99498.09
2023-02-24T13:07:38.064Z,99497.63
2023-02-24T13:10:20.378Z,99500.22
2023-02-24T13:12:56.775Z,99492.34
2023-02-24T13:15:27.903Z,99486.00
2023-02-24T13:17:58.336Z,99475.44
2023-02-24T13:20:29.686Z,99488.97
2023-02-24T13:22:59.061Z,99486.19
2023-02-24T13:25:34.112Z,99491.75
2023-02-24T13:28:04.445Z,99490.13
2023-02-24T13:30:38.534Z,99500.50
2023-02-24T13:33:22.235Z,99521.34
2023-02-24T13:35:51.925Z,99521.63
2023-02-24T13:38:26.405Z,99524.44
2023-02-24T13:41:07.033Z,99528.75
2023-02-24T13:43:35.184Z,99515.72
2023-02-24T13:46:18.249Z,99511.00
2023-02-24T13:49:00.882Z,99522.75
2023-02-24T13:51:47.441Z,99526.53
2023-02-24T13:54:32.450Z,99517.34
2023-02-24T13:57:13.362Z,99514.16
2023-02-24T13:59:57.558Z,99513.50
2023-02-24T14:02:29.631Z,99517.03
2023-02-24T14:05:03.423Z,99510.88
2023-02-24T14:07:33.322Z,99516.06
2023-02-24T14:10:05.170Z,99520.50
2023-02-24T14:12:37.139Z,99517.94
2023-02-24T14:15:06.096Z,99517.94
2023-02-24T14:17:36.430Z,99518.81
2023-02-24T14:20:19.162Z,99513.69
2023-02-24T14:22:49.418Z,99509.38
2023-02-24T14:25:19.155Z,99507.13
2023-02-24T14:27:52.012Z,99518.84
2023-02-24T14:30:26.119Z,99517.34
2023-02-24T14:32:55.291Z,99517.41
2023-02-24T14:35:29.944Z,99516.50
2023-02-24T14:38:02.320Z,99506.75
2023-02-24T14:40:33.986Z,99506.69
2023-02-24T14:43:08.604Z,99509.44
2023-02-24T14:45:37.192Z,99509.53
2023-02-24T14:48:07.569Z,99510.47
2023-02-24T14:50:36.509Z,99507.91
2023-02-24T14:53:07.692Z,99508.66
2023-02-24T14:55:38.725Z,99509.44
2023-02-24T14:58:15.694Z,99504.06
2023-02-24T15:00:49.783Z,99502.09
2023-02-24T15:03:24.300Z,99506.22
2023-02-24T15:05:56.588Z,99500.03
2023-02-24T15:08:34.880Z,99508.59
2023-02-24T15:11:10.300Z,99506.69
2023-02-24T15:13:42.881Z,99503.88
2023-02-24T15:16:14.748Z,99500.97
2023-02-24T15:18:43.350Z,99493.78
2023-02-24T15:21:21.453Z,99499.69
2023-02-24T15:23:50.488Z,99499.69
2023-02-24T15:26:37.138Z,99501.41
2023-02-24T15:29:15.287Z,99497.94
2023-02-24T15:31:48.566Z,99497.97
2023-02-24T15:34:21.119Z,99501.44
2023-02-24T15:36:51.895Z,99500.66
2023-02-24T15:39:23.516Z,99499.91
2023-02-24T15:41:53.595Z,99498.25
2023-02-24T15:44:28.679Z,99496.59
2023-02-24T15:46:59.632Z,99506.16
2023-02-24T15:49:27.879Z,99505.38
2023-02-24T15:51:59.844Z,99508.00
2023-02-24T15:54:31.623Z,99503.53
2023-02-24T15:57:01.587Z,99505.25
2023-02-24T15:59:31.255Z,99505.38
2023-02-24T16:01:59.538Z,99497.50
2023-02-24T16:04:27.903Z,99501.91
2023-02-24T16:06:58.719Z,99501.91
2023-02-24T16:09:33.686Z,99507.16
2023-02-24T16:12:04.824Z,99511.59
2023-02-24T16:14:34.733Z,99512.59
2023-02-24T16:17:08.931Z,99511.91
2023-02-24T16:19:38.168Z,99512.00
2023-02-24T16:22:06.188Z,99522.63
2023-02-24T16:24:34.354Z,99519.19
2023-02-24T16:27:02.458Z,99507.03
2023-02-24T16:29:30.735Z,99520.16
2023-02-24T16:32:00.354Z,99524.56
2023-02-24T16:34:28.696Z,99516.66
2023-02-24T16:36:56.774Z,99514.09
2023-02-24T16:39:24.976Z,99520.25
2023-02-24T16:41:53.708Z,99523.78
2023-02-24T16:44:23.233Z,99535.22
2023-02-24T16:46:51.334Z,99527.44
2023-02-24T16:49:21.615Z,99519.66
2023-02-24T16:51:49.815Z,99523.06
2023-02-24T16:54:21.682Z,99527.44
2023-02-24T16:56:50.789Z,99524.88
2023-02-24T16:59:18.861Z,99534.56
2023-02-24T17:01:47.026Z,99532.94
2023-02-24T17:04:15.243Z,99531.34
2023-02-24T17:06:45.068Z,99540.06
2023-02-24T17:09:15.721Z,99545.53
2023-02-24T17:11:44.012Z,99548.13
2023-02-24T17:14:16.825Z,99547.13
2023-02-24T17:16:45.290Z,99553.88
2023-02-24T17:19:13.684Z,99551.97
2023-02-24T17:21:45.623Z,99556.47
2023-02-24T17:24:16.685Z,99555.09
2023-02-24T17:26:45.764Z,99566.03
2023-02-24T17:29:14.758Z,99566.38
2023-02-24T17:31:43.621Z,99577.13
2023-02-24T17:34:11.804Z,99576.56
2023-02-24T17:36:39.951Z,99581.78
2023-02-24T17:39:09.599Z,99584.34
2023-02-24T17:41:37.768Z,99588.03
2023-02-24T17:44:05.869Z,99588.13
2023-02-24T17:46:34.033Z,99596.06
2023-02-24T17:49:04.943Z,99598.16
2023-02-24T17:51:33.147Z,99610.72
2023-02-24T17:54:01.269Z,99606.72
2023-02-24T17:56:30.840Z,99614.22
2023-02-24T17:59:01.053Z,99618.03
2023-02-24T18:01:29.737Z,99625.44
2023-02-24T18:03:58.317Z,99631.09
2023-02-24T18:06:26.836Z,99635.75
2023-02-24T18:08:55.084Z,99647.25
2023-02-24T18:11:23.235Z,99643.88
2023-02-24T18:13:55.143Z,99649.91
2023-02-24T18:16:23.869Z,99641.09
2023-02-24T18:18:52.400Z,99648.97
2023-02-24T18:21:20.631Z,99656.00
2023-02-24T18:23:49.655Z,99660.31
2023-02-24T18:26:18.450Z,99668.25
2023-02-24T18:28:46.904Z,99678.16
2023-02-24T18:31:17.914Z,99673.19
2023-02-24T18:33:46.325Z,99680.41
2023-02-24T18:36:14.631Z,99680.53
2023-02-24T18:38:43.020Z,99686.69
2023-02-24T18:41:14.196Z,99699.75
2023-02-24T18:43:42.812Z,99706.72
2023-02-24T18:46:14.277Z,99699.75
2023-02-24T18:48:46.061Z,99703.69
2023-02-24T18:51:17.056Z,99711.28
2023-02-24T18:53:45.551Z,99716.47
2023-02-24T18:56:17.811Z,99720.69
2023-02-24T18:58:46.796Z,99717.00
2023-02-24T19:01:16.770Z,99722.78
2023-02-24T19:03:46.243Z,99726.09
2023-02-24T19:06:14.843Z,99725.97
2023-02-24T19:08:43.597Z,99726.00
2023-02-24T19:11:15.036Z,99725.28
2023-02-24T19:13:43.551Z,99727.97
2023-02-24T19:16:12.624Z,99732.28
2023-02-24T19:18:40.876Z,99731.34
2023-02-24T19:21:11.853Z,99738.31
2023-02-24T19:23:40.123Z,99727.97
2023-02-24T19:26:16.450Z,99738.56
2023-02-24T19:28:44.550Z,99748.41
2023-02-24T19:31:15.988Z,99743.47
2023-02-24T19:33:44.383Z,99746.16
2023-02-24T19:36:13.809Z,99748.94
2023-02-24T19:38:42.796Z,99758.69
2023-02-24T19:41:10.812Z,99761.44
2023-02-24T19:43:41.767Z,99758.97
2023-02-24T19:46:12.041Z,99766.09
2023-02-24T19:48:40.990Z,99762.78
2023-02-24T19:51:10.980Z,99770.66
2023-02-24T19:53:40.328Z,99774.16
2023-02-24T19:56:08.745Z,99774.97
2023-02-24T19:58:37.299Z,99786.09
2023-02-24T20:01:09.283Z,99781.75
2023-02-24T20:03:38.174Z,99780.03
2023-02-24T20:06:08.107Z,99781.81
2023-02-24T20:08:36.799Z,99787.94
2023-02-24T20:11:06.840Z,99792.41
2023-02-24T20:13:35.010Z,99793.47
2023-02-24T20:16:07.287Z,99798.00
2023-02-24T20:18:35.629Z,99805.03
2023-02-24T20:21:04.370Z,99804.38
2023-02-24T20:23:33.502Z,99802.91
2023-02-24T20:26:02.659Z,99800.50
2023-02-24T20:28:32.254Z,99807.63
2023-02-24T20:31:06.834Z,99816.47
2023-02-24T20:33:35.457Z,99825.28
2023-02-24T20:36:08.940Z,99827.16
2023-02-24T20:38:37.229Z,99822.06
2023-02-24T20:41:05.491Z,99825.59
2023-02-24T20:43:35.446Z,99829.16
2023-02-24T20:46:12.552Z,99832.78
2023-02-24T20:48:40.717Z,99835.53
2023-02-24T20:51:09.249Z,99842.44
2023-02-24T20:53:55.599Z,99845.06
2023-02-24T20:56:25.768Z,99852.13
2023-02-24T20:58:59.931Z,99860.00
2023-02-24T21:01:29.404Z,99852.22
2023-02-24T21:03:57.599Z,99855.63
2023-02-24T21:06:26.487Z,99869.47
2023-02-24T21:08:54.858Z,99863.44
2023-02-24T21:11:23.651Z,99869.53
2023-02-24T21:13:53.062Z,99873.00
2023-02-24T21:16:23.710Z,99879.84
2023-02-24T21:18:53.318Z,99885.00
2023-02-24T21:21:22.196Z,99878.00
2023-02-24T21:23:51.481Z,99882.25
2023-02-24T21:26:20.741Z,99881.28
2023-02-24T21:28:49.562Z,99891.63
2023-02-24T21:31:20.515Z,99889.00
2023-02-24T21:33:53.227Z,99901.06
2023-02-24T21:36:25.794Z,99899.34
2023-02-24T21:38:54.423Z,99903.63
2023-02-24T21:41:23.956Z,99908.00
2023-02-24T21:43:55.728Z,99914.06
2023-02-24T21:46:28.375Z,99908.91
2023-02-24T21:48:59.633Z,99908.97
2023-02-24T21:51:29.234Z,99909.88
2023-02-24T21:53:58.397Z,99912.50
2023-02-24T21:56:28.092Z,99915.09
2023-02-24T21:58:59.571Z,99906.47
2023-02-24T22:01:29.720Z,99915.13
2023-02-24T22:04:01.325Z,99910.78
2023-02-24T22:06:32.079Z,99916.84
2023-02-24T22:09:01.558Z,99914.31
2023-02-24T22:11:32.268Z,99927.31
2023-02-24T22:14:00.458Z,99924.72
2023-02-24T22:16:29.155Z,99936.03
2023-02-24T22:18:57.547Z,99943.81
2023-02-24T22:21:29.429Z,99936.09
2023-02-24T22:23:59.471Z,99941.28
2023-02-24T22:26:28.672Z,99942.16
2023-02-24T22:28:57.284Z,99937.84
2023-02-24T22:31:27.241Z,99940.38
2023-02-24T22:33:55.527Z,99936.03
2023-02-24T22:36:27.375Z,99936.88
2023-02-24T22:38:57.108Z,99925.69
2023-02-24T22:41:28.395Z,99931.75
2023-02-24T22:43:56.501Z,99941.25
2023-02-24T22:46:27.287Z,99935.19
2023-02-24T22:48:56.509Z,99941.25
2023-02-24T22:51:26.816Z,99941.25
2023-02-24T22:53:56.439Z,99945.59
2023-02-24T22:56:27.196Z,99943.88
2023-02-24T22:58:55.709Z,99943.88
2023-02-24T23:01:26.034Z,99949.91
2023-02-24T23:03:54.352Z,99947.34
2023-02-24T23:06:26.154Z,99947.34
2023-02-24T23:08:56.308Z,99954.22
2023-02-24T23:11:27.766Z,99946.47
2023-02-24T23:13:58.787Z,99947.31
2023-02-24T23:16:29.523Z,99958.53
2023-02-24T23:18:59.116Z,99954.22
2023-02-24T23:21:33.734Z,99959.44
2023-02-24T23:24:04.121Z,99965.47
2023-02-24T23:26:33.684Z,99961.13
2023-02-24T23:29:02.270Z,99956.81
2023-02-24T23:31:30.529Z,99963.75
2023-02-24T23:33:59.425Z,99962.00
2023-02-24T23:36:27.769Z,99962.84
2023-02-24T23:38:57.559Z,99952.41
2023-02-24T23:41:27.199Z,99964.50
2023-02-24T23:43:55.390Z,99963.63
2023-02-24T23:46:24.374Z,99961.91
2023-02-24T23:48:53.633Z,99963.63
2023-02-24T23:51:22.330Z,99964.50
2023-02-24T23:53:51.070Z,99966.22
2023-02-24T23:56:21.421Z,99955.88
2023-02-24T23:58:53.025Z,99962.81
